sensor_id;sensor_type;location;lat;lon;timestamp;temperature;humidity
15199;DHT22;7700;48.654;9.070;2022-07-11T00:01:33;13.60;99.90
15199;DHT22;7700;48.654;9.070;2022-07-11T00:03:59;13.60;99.90
15199;DHT22;7700;48.654;9.070;2022-07-11T00:06:24;13.70;99.90
15199;DHT22;7700;48.654;9.070;2022-07-11T00:08:50;13.70;99.90
15199;DHT22;7700;48.654;9.070;2022-07-11T00:11:15;13.80;99.90
15199;DHT22;7700;48.654;9.070;2022-07-11T00:13:41;13.80;99.90
15199;DHT22;7700;48.654;9.070;2022-07-11T00:16:07;13.80;99.90
15199;DHT22;7700;48.654;9.070;2022-07-11T00:18:32;13.80;99.90
15199;DHT22;7700;48.654;9.070;2022-07-11T00:20:58;13.90;99.90
15199;DHT22;7700;48.654;9.070;2022-07-11T00:23:23;13.80;99.90
15199;DHT22;7700;48.654;9.070;2022-07-11T00:25:49;13.90;99.90
15199;DHT22;7700;48.654;9.070;2022-07-11T00:28:14;13.90;99.90
15199;DHT22;7700;48.654;9.070;2022-07-11T00:30:40;13.90;99.90
15199;DHT22;7700;48.654;9.070;2022-07-11T00:33:05;13.80;99.90
15199;DHT22;7700;48.654;9.070;2022-07-11T00:35:31;13.90;99.90
15199;DHT22;7700;48.654;9.070;2022-07-11T00:37:57;13.90;99.90
15199;DHT22;7700;48.654;9.070;2022-07-11T00:40:22;13.80;99.90
15199;DHT22;7700;48.654;9.070;2022-07-11T00:42:48;13.70;99.90
15199;DHT22;7700;48.654;9.070;2022-07-11T00:45:13;13.50;99.90
15199;DHT22;7700;48.654;9.070;2022-07-11T00:47:39;13.40;99.90
15199;DHT22;7700;48.654;9.070;2022-07-11T00:50:05;13.30;99.90
15199;DHT22;7700;48.654;9.070;2022-07-11T00:52:30;13.30;99.90
15199;DHT22;7700;48.654;9.070;2022-07-11T00:54:57;13.30;99.90
15199;DHT22;7700;48.654;9.070;2022-07-11T00:57:23;13.50;99.90
15199;DHT22;7700;48.654;9.070;2022-07-11T00:59:48;13.60;99.90
15199;DHT22;7700;48.654;9.070;2022-07-11T01:02:14;13.60;99.90
15199;DHT22;7700;48.654;9.070;2022-07-11T01:04:40;13.60;99.90
15199;DHT22;7700;48.654;9.070;2022-07-11T01:07:06;13.60;99.90
15199;DHT22;7700;48.654;9.070;2022-07-11T01:09:31;13.50;99.90
15199;DHT22;7700;48.654;9.070;2022-07-11T01:11:57;13.50;99.90
15199;DHT22;7700;48.654;9.070;2022-07-11T01:14:23;13.60;99.90
15199;DHT22;7700;48.654;9.070;2022-07-11T01:16:49;13.70;99.90
15199;DHT22;7700;48.654;9.070;2022-07-11T01:19:16;13.80;99.90
15199;DHT22;7700;48.654;9.070;2022-07-11T01:21:43;13.80;99.90
15199;DHT22;7700;48.654;9.070;2022-07-11T01:24:09;13.80;99.90
15199;DHT22;7700;48.654;9.070;2022-07-11T01:26:35;13.90;99.90
15199;DHT22;7700;48.654;9.070;2022-07-11T01:29:10;13.90;99.90
15199;DHT22;7700;48.654;9.070;2022-07-11T01:31:43;14.00;99.90
15199;DHT22;7700;48.654;9.070;2022-07-11T01:34:09;14.00;99.90
15199;DHT22;7700;48.654;9.070;2022-07-11T01:36:35;13.90;99.90
15199;DHT22;7700;48.654;9.070;2022-07-11T01:39:00;13.80;99.90
15199;DHT22;7700;48.654;9.070;2022-07-11T01:41:26;13.80;99.90
15199;DHT22;7700;48.654;9.070;2022-07-11T01:43:52;13.80;99.90
15199;DHT22;7700;48.654;9.070;2022-07-11T01:46:18;13.90;99.90
15199;DHT22;7700;48.654;9.070;2022-07-11T01:48:44;13.90;99.90
15199;DHT22;7700;48.654;9.070;2022-07-11T01:51:10;14.00;99.90
15199;DHT22;7700;48.654;9.070;2022-07-11T01:53:36;14.10;99.90
15199;DHT22;7700;48.654;9.070;2022-07-11T01:56:02;14.00;99.90
15199;DHT22;7700;48.654;9.070;2022-07-11T01:58:27;13.90;99.90
15199;DHT22;7700;48.654;9.070;2022-07-11T02:00:56;13.60;99.90
15199;DHT22;7700;48.654;9.070;2022-07-11T02:03:22;13.40;99.90
15199;DHT22;7700;48.654;9.070;2022-07-11T02:05:47;13.40;99.90
15199;DHT22;7700;48.654;9.070;2022-07-11T02:08:13;13.30;99.90
15199;DHT22;7700;48.654;9.070;2022-07-11T02:13:13;13.30;99.90
15199;DHT22;7700;48.654;9.070;2022-07-11T02:15:39;13.30;99.90
15199;DHT22;7700;48.654;9.070;2022-07-11T02:18:05;13.40;99.90
15199;DHT22;7700;48.654;9.070;2022-07-11T02:20:32;13.50;99.90
15199;DHT22;7700;48.654;9.070;2022-07-11T02:22:57;13.50;99.90
15199;DHT22;7700;48.654;9.070;2022-07-11T02:25:24;13.60;99.90
15199;DHT22;7700;48.654;9.070;2022-07-11T02:27:50;13.60;99.90
15199;DHT22;7700;48.654;9.070;2022-07-11T02:30:15;13.70;99.90
15199;DHT22;7700;48.654;9.070;2022-07-11T02:32:42;13.80;99.90
15199;DHT22;7700;48.654;9.070;2022-07-11T02:35:08;13.80;99.90
15199;DHT22;7700;48.654;9.070;2022-07-11T02:37:34;13.90;99.90
15199;DHT22;7700;48.654;9.070;2022-07-11T02:39:59;13.90;99.90
15199;DHT22;7700;48.654;9.070;2022-07-11T02:42:25;13.90;99.90
15199;DHT22;7700;48.654;9.070;2022-07-11T02:44:50;13.90;99.90
15199;DHT22;7700;48.654;9.070;2022-07-11T02:47:16;14.00;99.90
15199;DHT22;7700;48.654;9.070;2022-07-11T02:49:41;14.00;99.90
15199;DHT22;7700;48.654;9.070;2022-07-11T02:52:07;14.00;99.90
15199;DHT22;7700;48.654;9.070;2022-07-11T02:54:33;14.10;99.90
15199;DHT22;7700;48.654;9.070;2022-07-11T02:56:59;14.10;99.90
15199;DHT22;7700;48.654;9.070;2022-07-11T02:59:24;14.10;99.90
15199;DHT22;7700;48.654;9.070;2022-07-11T03:01:51;14.10;99.90
15199;DHT22;7700;48.654;9.070;2022-07-11T03:04:17;14.20;99.90
15199;DHT22;7700;48.654;9.070;2022-07-11T03:06:42;14.20;99.90
15199;DHT22;7700;48.654;9.070;2022-07-11T03:09:08;14.30;99.90
15199;DHT22;7700;48.654;9.070;2022-07-11T03:11:35;14.50;99.90
15199;DHT22;7700;48.654;9.070;2022-07-11T03:14:01;14.40;99.90
15199;DHT22;7700;48.654;9.070;2022-07-11T03:16:28;14.30;99.90
15199;DHT22;7700;48.654;9.070;2022-07-11T03:18:54;14.30;99.90
15199;DHT22;7700;48.654;9.070;2022-07-11T03:21:19;14.30;99.90
15199;DHT22;7700;48.654;9.070;2022-07-11T03:23:45;14.20;99.90
15199;DHT22;7700;48.654;9.070;2022-07-11T03:26:11;14.20;99.90
15199;DHT22;7700;48.654;9.070;2022-07-11T03:28:36;14.30;99.90
15199;DHT22;7700;48.654;9.070;2022-07-11T03:31:02;14.30;99.90
15199;DHT22;7700;48.654;9.070;2022-07-11T03:33:28;14.30;99.90
15199;DHT22;7700;48.654;9.070;2022-07-11T03:35:53;14.10;99.90
15199;DHT22;7700;48.654;9.070;2022-07-11T03:38:19;14.00;99.90
15199;DHT22;7700;48.654;9.070;2022-07-11T03:40:46;13.90;99.90
15199;DHT22;7700;48.654;9.070;2022-07-11T03:43:13;13.80;99.90
15199;DHT22;7700;48.654;9.070;2022-07-11T03:45:39;13.80;99.90
15199;DHT22;7700;48.654;9.070;2022-07-11T03:48:05;13.90;99.90
15199;DHT22;7700;48.654;9.070;2022-07-11T03:50:32;13.90;99.90
15199;DHT22;7700;48.654;9.070;2022-07-11T03:52:58;14.10;99.90
15199;DHT22;7700;48.654;9.070;2022-07-11T03:55:24;14.20;99.90
15199;DHT22;7700;48.654;9.070;2022-07-11T03:57:50;14.30;99.90
15199;DHT22;7700;48.654;9.070;2022-07-11T04:00:16;14.20;99.90
15199;DHT22;7700;48.654;9.070;2022-07-11T04:02:42;14.10;99.90
15199;DHT22;7700;48.654;9.070;2022-07-11T04:05:07;14.10;99.90
15199;DHT22;7700;48.654;9.070;2022-07-11T04:07:33;14.10;99.90
15199;DHT22;7700;48.654;9.070;2022-07-11T04:09:59;14.10;99.90
15199;DHT22;7700;48.654;9.070;2022-07-11T04:12:25;14.20;99.90
15199;DHT22;7700;48.654;9.070;2022-07-11T04:14:50;14.30;99.90
15199;DHT22;7700;48.654;9.070;2022-07-11T04:17:16;14.40;99.90
15199;DHT22;7700;48.654;9.070;2022-07-11T04:19:42;14.40;99.90
15199;DHT22;7700;48.654;9.070;2022-07-11T04:22:11;14.50;99.90
15199;DHT22;7700;48.654;9.070;2022-07-11T04:24:36;14.50;99.90
15199;DHT22;7700;48.654;9.070;2022-07-11T04:27:02;14.50;99.90
15199;DHT22;7700;48.654;9.070;2022-07-11T04:29:28;14.50;99.90
15199;DHT22;7700;48.654;9.070;2022-07-11T04:31:53;14.60;99.90
15199;DHT22;7700;48.654;9.070;2022-07-11T04:34:19;14.70;99.90
15199;DHT22;7700;48.654;9.070;2022-07-11T04:36:45;14.70;99.90
15199;DHT22;7700;48.654;9.070;2022-07-11T04:39:10;14.80;99.90
15199;DHT22;7700;48.654;9.070;2022-07-11T04:41:36;14.80;99.90
15199;DHT22;7700;48.654;9.070;2022-07-11T04:44:02;14.80;99.90
15199;DHT22;7700;48.654;9.070;2022-07-11T04:46:28;14.80;99.90
15199;DHT22;7700;48.654;9.070;2022-07-11T04:48:54;14.80;99.90
15199;DHT22;7700;48.654;9.070;2022-07-11T04:51:20;14.80;99.90
15199;DHT22;7700;48.654;9.070;2022-07-11T04:53:46;14.80;99.90
15199;DHT22;7700;48.654;9.070;2022-07-11T04:56:11;14.90;99.90
15199;DHT22;7700;48.654;9.070;2022-07-11T04:58:37;14.90;99.90
15199;DHT22;7700;48.654;9.070;2022-07-11T05:01:03;14.90;99.90
15199;DHT22;7700;48.654;9.070;2022-07-11T05:03:29;15.00;99.90
15199;DHT22;7700;48.654;9.070;2022-07-11T05:05:55;15.00;99.90
15199;DHT22;7700;48.654;9.070;2022-07-11T05:08:21;15.10;99.90
15199;DHT22;7700;48.654;9.070;2022-07-11T05:10:47;15.10;99.90
15199;DHT22;7700;48.654;9.070;2022-07-11T05:13:12;15.10;99.90
15199;DHT22;7700;48.654;9.070;2022-07-11T05:15:38;15.10;99.90
15199;DHT22;7700;48.654;9.070;2022-07-11T05:18:05;15.10;99.90
15199;DHT22;7700;48.654;9.070;2022-07-11T05:20:31;15.10;99.90
15199;DHT22;7700;48.654;9.070;2022-07-11T05:22:57;15.20;99.90
15199;DHT22;7700;48.654;9.070;2022-07-11T05:25:22;15.20;99.90
15199;DHT22;7700;48.654;9.070;2022-07-11T05:27:48;15.20;99.90
15199;DHT22;7700;48.654;9.070;2022-07-11T05:30:14;15.30;99.90
15199;DHT22;7700;48.654;9.070;2022-07-11T05:32:40;15.30;99.90
15199;DHT22;7700;48.654;9.070;2022-07-11T05:35:05;15.30;99.90
15199;DHT22;7700;48.654;9.070;2022-07-11T05:37:31;15.30;99.90
15199;DHT22;7700;48.654;9.070;2022-07-11T05:39:56;15.50;99.90
15199;DHT22;7700;48.654;9.070;2022-07-11T05:42:22;15.70;99.90
15199;DHT22;7700;48.654;9.070;2022-07-11T05:44:49;15.90;99.90
15199;DHT22;7700;48.654;9.070;2022-07-11T05:47:15;16.10;99.90
15199;DHT22;7700;48.654;9.070;2022-07-11T05:49:41;16.30;99.90
15199;DHT22;7700;48.654;9.070;2022-07-11T05:52:08;16.30;99.90
15199;DHT22;7700;48.654;9.070;2022-07-11T05:54:34;16.40;99.90
15199;DHT22;7700;48.654;9.070;2022-07-11T05:57:00;16.60;99.90
15199;DHT22;7700;48.654;9.070;2022-07-11T05:59:28;16.80;99.90
15199;DHT22;7700;48.654;9.070;2022-07-11T06:01:53;17.00;99.90
15199;DHT22;7700;48.654;9.070;2022-07-11T06:04:19;17.00;99.90
15199;DHT22;7700;48.654;9.070;2022-07-11T06:06:45;17.00;99.90
15199;DHT22;7700;48.654;9.070;2022-07-11T06:09:10;17.10;99.90
15199;DHT22;7700;48.654;9.070;2022-07-11T06:11:36;17.00;99.90
15199;DHT22;7700;48.654;9.070;2022-07-11T06:14:02;17.10;99.90
15199;DHT22;7700;48.654;9.070;2022-07-11T06:16:28;17.30;99.90
15199;DHT22;7700;48.654;9.070;2022-07-11T06:18:53;17.40;99.90
15199;DHT22;7700;48.654;9.070;2022-07-11T06:21:19;17.70;99.90
15199;DHT22;7700;48.654;9.070;2022-07-11T06:23:48;17.70;99.90
15199;DHT22;7700;48.654;9.070;2022-07-11T06:26:14;17.80;99.90
15199;DHT22;7700;48.654;9.070;2022-07-11T06:28:41;17.90;99.90
15199;DHT22;7700;48.654;9.070;2022-07-11T06:31:07;18.10;99.90
15199;DHT22;7700;48.654;9.070;2022-07-11T06:33:33;18.30;99.90
15199;DHT22;7700;48.654;9.070;2022-07-11T06:36:00;18.40;99.90
15199;DHT22;7700;48.654;9.070;2022-07-11T06:38:26;18.50;99.90
15199;DHT22;7700;48.654;9.070;2022-07-11T06:40:52;18.60;99.90
15199;DHT22;7700;48.654;9.070;2022-07-11T06:43:19;18.70;99.90
15199;DHT22;7700;48.654;9.070;2022-07-11T06:45:44;18.90;99.90
15199;DHT22;7700;48.654;9.070;2022-07-11T06:48:10;19.00;99.90
15199;DHT22;7700;48.654;9.070;2022-07-11T06:50:35;19.20;99.90
15199;DHT22;7700;48.654;9.070;2022-07-11T06:53:02;19.30;99.90
15199;DHT22;7700;48.654;9.070;2022-07-11T06:55:28;19.50;99.90
15199;DHT22;7700;48.654;9.070;2022-07-11T06:57:54;19.50;99.90
15199;DHT22;7700;48.654;9.070;2022-07-11T07:00:19;19.60;99.90
15199;DHT22;7700;48.654;9.070;2022-07-11T07:02:45;19.80;99.90
15199;DHT22;7700;48.654;9.070;2022-07-11T07:05:11;19.90;99.90
15199;DHT22;7700;48.654;9.070;2022-07-11T07:07:37;20.00;99.90
15199;DHT22;7700;48.654;9.070;2022-07-11T07:10:02;19.90;99.90
15199;DHT22;7700;48.654;9.070;2022-07-11T07:12:28;19.80;99.90
15199;DHT22;7700;48.654;9.070;2022-07-11T07:14:54;19.80;99.90
15199;DHT22;7700;48.654;9.070;2022-07-11T07:17:19;19.90;99.90
15199;DHT22;7700;48.654;9.070;2022-07-11T07:19:45;20.20;99.90
15199;DHT22;7700;48.654;9.070;2022-07-11T07:22:11;20.40;99.90
15199;DHT22;7700;48.654;9.070;2022-07-11T07:24:40;20.40;99.90
15199;DHT22;7700;48.654;9.070;2022-07-11T07:27:05;20.50;99.90
15199;DHT22;7700;48.654;9.070;2022-07-11T07:29:31;20.50;99.90
15199;DHT22;7700;48.654;9.070;2022-07-11T07:31:58;20.40;99.90
15199;DHT22;7700;48.654;9.070;2022-07-11T07:34:24;20.40;99.90
15199;DHT22;7700;48.654;9.070;2022-07-11T07:36:50;20.30;99.90
15199;DHT22;7700;48.654;9.070;2022-07-11T07:39:15;20.30;99.90
15199;DHT22;7700;48.654;9.070;2022-07-11T07:41:41;20.60;99.90
15199;DHT22;7700;48.654;9.070;2022-07-11T07:44:06;20.60;99.90
15199;DHT22;7700;48.654;9.070;2022-07-11T07:46:32;20.80;99.90
15199;DHT22;7700;48.654;9.070;2022-07-11T07:48:58;21.00;99.90
15199;DHT22;7700;48.654;9.070;2022-07-11T07:51:24;21.00;99.90
15199;DHT22;7700;48.654;9.070;2022-07-11T07:53:50;21.10;99.90
15199;DHT22;7700;48.654;9.070;2022-07-11T07:56:16;21.40;99.90
15199;DHT22;7700;48.654;9.070;2022-07-11T07:58:41;21.40;99.90
15199;DHT22;7700;48.654;9.070;2022-07-11T08:01:07;21.70;99.90
15199;DHT22;7700;48.654;9.070;2022-07-11T08:03:52;21.80;99.90
15199;DHT22;7700;48.654;9.070;2022-07-11T08:06:18;21.80;99.90
15199;DHT22;7700;48.654;9.070;2022-07-11T08:08:43;21.90;99.90
15199;DHT22;7700;48.654;9.070;2022-07-11T08:11:09;22.10;99.90
15199;DHT22;7700;48.654;9.070;2022-07-11T08:13:35;22.10;99.90
15199;DHT22;7700;48.654;9.070;2022-07-11T08:16:03;22.20;99.90
15199;DHT22;7700;48.654;9.070;2022-07-11T08:18:28;22.00;99.90
15199;DHT22;7700;48.654;9.070;2022-07-11T08:20:54;22.20;99.90
15199;DHT22;7700;48.654;9.070;2022-07-11T08:23:21;22.40;99.90
15199;DHT22;7700;48.654;9.070;2022-07-11T08:25:47;22.50;99.90
15199;DHT22;7700;48.654;9.070;2022-07-11T08:28:12;22.60;99.90
15199;DHT22;7700;48.654;9.070;2022-07-11T08:30:38;22.70;99.90
15199;DHT22;7700;48.654;9.070;2022-07-11T08:33:04;22.70;99.90
15199;DHT22;7700;48.654;9.070;2022-07-11T08:35:29;23.00;99.90
15199;DHT22;7700;48.654;9.070;2022-07-11T08:37:55;22.90;99.90
15199;DHT22;7700;48.654;9.070;2022-07-11T08:40:20;22.50;99.90
15199;DHT22;7700;48.654;9.070;2022-07-11T08:42:46;22.00;99.90
15199;DHT22;7700;48.654;9.070;2022-07-11T08:45:13;21.80;99.90
15199;DHT22;7700;48.654;9.070;2022-07-11T08:47:39;21.30;99.90
15199;DHT22;7700;48.654;9.070;2022-07-11T08:50:06;21.10;99.90
15199;DHT22;7700;48.654;9.070;2022-07-11T08:52:32;21.10;99.90
15199;DHT22;7700;48.654;9.070;2022-07-11T08:54:58;21.20;99.90
15199;DHT22;7700;48.654;9.070;2022-07-11T08:57:24;21.40;99.90
15199;DHT22;7700;48.654;9.070;2022-07-11T08:59:53;21.50;99.90
15199;DHT22;7700;48.654;9.070;2022-07-11T09:02:20;21.80;99.90
15199;DHT22;7700;48.654;9.070;2022-07-11T09:04:46;22.20;99.90
15199;DHT22;7700;48.654;9.070;2022-07-11T09:07:12;22.80;99.90
15199;DHT22;7700;48.654;9.070;2022-07-11T09:09:38;23.30;99.90
15199;DHT22;7700;48.654;9.070;2022-07-11T09:12:14;23.70;99.90
15199;DHT22;7700;48.654;9.070;2022-07-11T09:14:46;24.30;99.90
15199;DHT22;7700;48.654;9.070;2022-07-11T09:17:12;25.00;99.90
15199;DHT22;7700;48.654;9.070;2022-07-11T09:19:38;25.50;99.90
15199;DHT22;7700;48.654;9.070;2022-07-11T09:22:09;25.50;99.90
15199;DHT22;7700;48.654;9.070;2022-07-11T09:25:00;25.20;98.50
15199;DHT22;7700;48.654;9.070;2022-07-11T09:27:58;25.00;99.10
15199;DHT22;7700;48.654;9.070;2022-07-11T09:30:28;25.60;98.50
15199;DHT22;7700;48.654;9.070;2022-07-11T09:33:06;25.70;97.30
15199;DHT22;7700;48.654;9.070;2022-07-11T09:35:39;25.50;96.80
15199;DHT22;7700;48.654;9.070;2022-07-11T09:38:12;25.60;97.10
15199;DHT22;7700;48.654;9.070;2022-07-11T09:40:43;25.60;96.80
15199;DHT22;7700;48.654;9.070;2022-07-11T09:43:08;25.50;96.30
15199;DHT22;7700;48.654;9.070;2022-07-11T09:45:35;25.50;96.40
15199;DHT22;7700;48.654;9.070;2022-07-11T09:48:12;25.10;96.10
15199;DHT22;7700;48.654;9.070;2022-07-11T09:50:39;24.90;97.80
15199;DHT22;7700;48.654;9.070;2022-07-11T09:53:12;25.20;95.30
15199;DHT22;7700;48.654;9.070;2022-07-11T09:55:43;25.10;95.60
15199;DHT22;7700;48.654;9.070;2022-07-11T09:58:14;25.20;96.90
15199;DHT22;7700;48.654;9.070;2022-07-11T10:03:32;25.20;95.20
15199;DHT22;7700;48.654;9.070;2022-07-11T10:05:58;25.50;97.10
15199;DHT22;7700;48.654;9.070;2022-07-11T10:08:23;26.10;97.30
15199;DHT22;7700;48.654;9.070;2022-07-11T10:10:50;26.30;94.50
15199;DHT22;7700;48.654;9.070;2022-07-11T10:13:16;26.70;94.20
15199;DHT22;7700;48.654;9.070;2022-07-11T10:15:42;27.50;93.10
15199;DHT22;7700;48.654;9.070;2022-07-11T10:18:24;27.50;91.40
15199;DHT22;7700;48.654;9.070;2022-07-11T10:20:54;26.90;91.50
15199;DHT22;7700;48.654;9.070;2022-07-11T10:25:59;27.20;92.90
15199;DHT22;7700;48.654;9.070;2022-07-11T10:29:05;27.50;92.10
15199;DHT22;7700;48.654;9.070;2022-07-11T10:31:26;27.60;90.90
15199;DHT22;7700;48.654;9.070;2022-07-11T10:34:05;27.00;91.80
15199;DHT22;7700;48.654;9.070;2022-07-11T10:36:34;26.30;93.20
15199;DHT22;7700;48.654;9.070;2022-07-11T10:39:19;26.60;93.10
15199;DHT22;7700;48.654;9.070;2022-07-11T10:41:56;27.10;93.10
15199;DHT22;7700;48.654;9.070;2022-07-11T10:44:22;27.20;92.20
15199;DHT22;7700;48.654;9.070;2022-07-11T10:46:48;27.20;91.50
15199;DHT22;7700;48.654;9.070;2022-07-11T10:54:47;28.40;90.00
15199;DHT22;7700;48.654;9.070;2022-07-11T10:57:40;28.10;87.80
15199;DHT22;7700;48.654;9.070;2022-07-11T11:00:11;27.80;89.20
15199;DHT22;7700;48.654;9.070;2022-07-11T11:03:09;27.80;90.40
15199;DHT22;7700;48.654;9.070;2022-07-11T11:14:18;28.60;86.80
15199;DHT22;7700;48.654;9.070;2022-07-11T11:16:44;28.00;88.20
15199;DHT22;7700;48.654;9.070;2022-07-11T11:22:17;27.30;88.40
15199;DHT22;7700;48.654;9.070;2022-07-11T11:24:44;27.00;90.30
15199;DHT22;7700;48.654;9.070;2022-07-11T11:27:18;27.20;90.20
15199;DHT22;7700;48.654;9.070;2022-07-11T11:29:44;27.60;90.30
15199;DHT22;7700;48.654;9.070;2022-07-11T11:32:11;27.80;89.70
15199;DHT22;7700;48.654;9.070;2022-07-11T11:34:39;28.40;87.80
15199;DHT22;7700;48.654;9.070;2022-07-11T11:37:05;29.00;86.70
15199;DHT22;7700;48.654;9.070;2022-07-11T11:39:34;29.30;87.30
15199;DHT22;7700;48.654;9.070;2022-07-11T11:42:10;29.60;83.10
15199;DHT22;7700;48.654;9.070;2022-07-11T11:44:51;29.80;83.40
15199;DHT22;7700;48.654;9.070;2022-07-11T11:47:17;30.40;83.90
15199;DHT22;7700;48.654;9.070;2022-07-11T11:49:44;30.50;81.60
15199;DHT22;7700;48.654;9.070;2022-07-11T11:52:10;30.40;80.70
15199;DHT22;7700;48.654;9.070;2022-07-11T11:54:36;29.90;78.80
15199;DHT22;7700;48.654;9.070;2022-07-11T11:57:07;28.90;81.90
15199;DHT22;7700;48.654;9.070;2022-07-11T11:59:33;28.40;84.90
15199;DHT22;7700;48.654;9.070;2022-07-11T12:01:59;28.10;85.10
15199;DHT22;7700;48.654;9.070;2022-07-11T12:04:24;28.40;83.70
15199;DHT22;7700;48.654;9.070;2022-07-11T12:06:50;28.70;82.80
15199;DHT22;7700;48.654;9.070;2022-07-11T12:09:20;29.10;82.40
15199;DHT22;7700;48.654;9.070;2022-07-11T12:12:06;29.40;82.70
15199;DHT22;7700;48.654;9.070;2022-07-11T12:14:50;30.10;80.80
15199;DHT22;7700;48.654;9.070;2022-07-11T12:17:23;30.60;79.40
15199;DHT22;7700;48.654;9.070;2022-07-11T12:19:48;29.90;76.50
15199;DHT22;7700;48.654;9.070;2022-07-11T12:22:14;29.80;77.40
15199;DHT22;7700;48.654;9.070;2022-07-11T12:24:39;29.80;76.60
15199;DHT22;7700;48.654;9.070;2022-07-11T12:27:11;29.20;77.50
15199;DHT22;7700;48.654;9.070;2022-07-11T12:29:40;28.90;80.60
15199;DHT22;7700;48.654;9.070;2022-07-11T12:32:13;28.40;79.10
15199;DHT22;7700;48.654;9.070;2022-07-11T12:39:35;28.10;82.40
15199;DHT22;7700;48.654;9.070;2022-07-11T12:45:03;28.10;81.70
15199;DHT22;7700;48.654;9.070;2022-07-11T12:47:45;27.10;80.60
15199;DHT22;7700;48.654;9.070;2022-07-11T12:52:41;26.70;84.80
15199;DHT22;7700;48.654;9.070;2022-07-11T12:55:11;26.40;89.50
15199;DHT22;7700;48.654;9.070;2022-07-11T13:00:36;26.50;88.00
15199;DHT22;7700;48.654;9.070;2022-07-11T13:03:04;26.50;87.20
15199;DHT22;7700;48.654;9.070;2022-07-11T13:05:45;26.50;88.10
15199;DHT22;7700;48.654;9.070;2022-07-11T13:08:24;26.60;88.10
15199;DHT22;7700;48.654;9.070;2022-07-11T13:11:18;26.60;85.50
15199;DHT22;7700;48.654;9.070;2022-07-11T13:13:45;26.80;86.70
15199;DHT22;7700;48.654;9.070;2022-07-11T13:16:18;26.60;86.50
15199;DHT22;7700;48.654;9.070;2022-07-11T13:18:44;26.40;87.90
15199;DHT22;7700;48.654;9.070;2022-07-11T13:21:11;26.30;89.70
15199;DHT22;7700;48.654;9.070;2022-07-11T13:23:37;26.20;89.20
15199;DHT22;7700;48.654;9.070;2022-07-11T13:26:05;26.10;89.20
15199;DHT22;7700;48.654;9.070;2022-07-11T13:28:31;26.20;89.40
15199;DHT22;7700;48.654;9.070;2022-07-11T13:30:57;26.40;87.60
15199;DHT22;7700;48.654;9.070;2022-07-11T13:33:23;26.50;88.80
15199;DHT22;7700;48.654;9.070;2022-07-11T13:35:49;26.60;87.70
15199;DHT22;7700;48.654;9.070;2022-07-11T13:38:15;26.70;86.60
15199;DHT22;7700;48.654;9.070;2022-07-11T13:40:41;26.70;87.80
15199;DHT22;7700;48.654;9.070;2022-07-11T13:43:07;26.60;89.10
15199;DHT22;7700;48.654;9.070;2022-07-11T13:45:34;26.20;88.50
15199;DHT22;7700;48.654;9.070;2022-07-11T13:48:00;25.90;89.10
15199;DHT22;7700;48.654;9.070;2022-07-11T13:50:26;25.60;90.20
15199;DHT22;7700;48.654;9.070;2022-07-11T13:52:51;25.60;90.60
15199;DHT22;7700;48.654;9.070;2022-07-11T13:55:18;25.60;91.20
15199;DHT22;7700;48.654;9.070;2022-07-11T13:57:46;25.70;90.70
15199;DHT22;7700;48.654;9.070;2022-07-11T14:00:15;25.70;90.40
15199;DHT22;7700;48.654;9.070;2022-07-11T14:02:41;25.80;90.30
15199;DHT22;7700;48.654;9.070;2022-07-11T14:05:07;25.70;90.70
15199;DHT22;7700;48.654;9.070;2022-07-11T14:07:33;25.50;90.80
15199;DHT22;7700;48.654;9.070;2022-07-11T14:09:59;25.40;90.80
15199;DHT22;7700;48.654;9.070;2022-07-11T14:12:24;25.30;91.50
15199;DHT22;7700;48.654;9.070;2022-07-11T14:14:50;25.40;91.50
15199;DHT22;7700;48.654;9.070;2022-07-11T14:17:15;25.30;91.60
15199;DHT22;7700;48.654;9.070;2022-07-11T14:19:41;25.40;91.90
15199;DHT22;7700;48.654;9.070;2022-07-11T14:22:07;25.50;91.80
15199;DHT22;7700;48.654;9.070;2022-07-11T14:24:36;25.80;91.60
15199;DHT22;7700;48.654;9.070;2022-07-11T14:27:01;26.10;91.60
15199;DHT22;7700;48.654;9.070;2022-07-11T14:29:28;26.30;91.10
15199;DHT22;7700;48.654;9.070;2022-07-11T14:31:54;26.40;90.80
15199;DHT22;7700;48.654;9.070;2022-07-11T14:34:23;26.20;91.40
15199;DHT22;7700;48.654;9.070;2022-07-11T14:36:48;26.10;90.40
15199;DHT22;7700;48.654;9.070;2022-07-11T14:39:14;25.90;91.10
15199;DHT22;7700;48.654;9.070;2022-07-11T14:41:41;25.90;91.50
15199;DHT22;7700;48.654;9.070;2022-07-11T14:44:07;25.90;91.70
15199;DHT22;7700;48.654;9.070;2022-07-11T14:46:32;25.90;91.70
15199;DHT22;7700;48.654;9.070;2022-07-11T14:48:58;25.80;91.30
15199;DHT22;7700;48.654;9.070;2022-07-11T14:51:24;25.70;91.10
15199;DHT22;7700;48.654;9.070;2022-07-11T14:53:53;25.50;92.60
15199;DHT22;7700;48.654;9.070;2022-07-11T14:56:19;25.50;92.80
15199;DHT22;7700;48.654;9.070;2022-07-11T14:58:44;25.50;92.50
15199;DHT22;7700;48.654;9.070;2022-07-11T15:01:10;25.40;92.50
15199;DHT22;7700;48.654;9.070;2022-07-11T15:03:35;25.40;92.30
15199;DHT22;7700;48.654;9.070;2022-07-11T15:06:08;25.40;92.70
15199;DHT22;7700;48.654;9.070;2022-07-11T15:08:34;25.30;93.20
15199;DHT22;7700;48.654;9.070;2022-07-11T15:11:18;25.40;93.30
15199;DHT22;7700;48.654;9.070;2022-07-11T15:14:03;25.40;92.40
15199;DHT22;7700;48.654;9.070;2022-07-11T15:16:29;25.20;93.30
15199;DHT22;7700;48.654;9.070;2022-07-11T15:18:58;25.20;92.60
15199;DHT22;7700;48.654;9.070;2022-07-11T15:21:23;25.10;92.70
15199;DHT22;7700;48.654;9.070;2022-07-11T15:23:50;25.00;93.30
15199;DHT22;7700;48.654;9.070;2022-07-11T15:26:15;25.00;93.60
15199;DHT22;7700;48.654;9.070;2022-07-11T15:28:42;25.00;93.60
15199;DHT22;7700;48.654;9.070;2022-07-11T15:31:09;25.20;93.90
15199;DHT22;7700;48.654;9.070;2022-07-11T15:33:34;25.40;93.60
15199;DHT22;7700;48.654;9.070;2022-07-11T15:36:00;25.50;93.50
15199;DHT22;7700;48.654;9.070;2022-07-11T15:38:25;25.80;92.90
15199;DHT22;7700;48.654;9.070;2022-07-11T15:40:52;25.70;92.90
15199;DHT22;7700;48.654;9.070;2022-07-11T15:43:18;25.60;93.30
15199;DHT22;7700;48.654;9.070;2022-07-11T15:45:44;25.70;93.60
15199;DHT22;7700;48.654;9.070;2022-07-11T15:48:09;25.50;92.40
15199;DHT22;7700;48.654;9.070;2022-07-11T15:50:35;25.60;92.30
15199;DHT22;7700;48.654;9.070;2022-07-11T15:53:01;25.60;91.80
15199;DHT22;7700;48.654;9.070;2022-07-11T15:55:27;25.60;91.50
15199;DHT22;7700;48.654;9.070;2022-07-11T15:57:53;25.60;92.50
15199;DHT22;7700;48.654;9.070;2022-07-11T16:00:18;25.70;92.50
15199;DHT22;7700;48.654;9.070;2022-07-11T16:02:46;25.60;92.70
15199;DHT22;7700;48.654;9.070;2022-07-11T16:05:12;25.50;92.70
15199;DHT22;7700;48.654;9.070;2022-07-11T16:07:38;25.30;92.80
15199;DHT22;7700;48.654;9.070;2022-07-11T16:10:04;25.20;93.60
15199;DHT22;7700;48.654;9.070;2022-07-11T16:12:31;25.10;93.40
15199;DHT22;7700;48.654;9.070;2022-07-11T16:14:57;25.20;93.20
15199;DHT22;7700;48.654;9.070;2022-07-11T16:17:23;25.10;92.80
15199;DHT22;7700;48.654;9.070;2022-07-11T16:19:49;25.00;93.40
15199;DHT22;7700;48.654;9.070;2022-07-11T16:22:14;25.00;93.60
15199;DHT22;7700;48.654;9.070;2022-07-11T16:24:40;24.80;93.80